Terminal Aerodrome Forecast
Issued by NWS

Home | Current Version | Previous Version | Text Only | Print | Product List | Glossary On
Versions: 1 2 3 4 5 6 7 8 9 10 11 12 13 14 15
000
FTUS46 KMTR 201900 AAA
TAFSNS
TAF AMD
KSNS 201915Z 2019/2118 30006KT P6SM SKC
     FM202200 29011KT P6SM SKC
     FM210400 28004KT P6SM BKN012
     FM210800 00000KT P6SM OVC008=

USA.gov is the U.S. government's official web portal to all federal, state and local government web resources and services.